sensor_id;sensor_type;location;lat;lon;timestamp;pressure;altitude;pressure_sealevel;temperature;humidity
50380;BME280;37474;59.468;18.040;2023-04-03T00:01:40;103489.38;;;-4.88;100.00
50380;BME280;37474;59.468;18.040;2023-04-03T00:04:10;103492.44;;;-5.09;100.00
50380;BME280;37474;59.468;18.040;2023-04-03T00:06:42;103488.16;;;-5.10;100.00
50380;BME280;37474;59.468;18.040;2023-04-03T00:09:09;103485.25;;;-4.86;100.00
50380;BME280;37474;59.468;18.040;2023-04-03T00:11:37;103485.78;;;-4.92;100.00
50380;BME280;37474;59.468;18.040;2023-04-03T00:14:09;103488.41;;;-4.75;100.00
50380;BME280;37474;59.468;18.040;2023-04-03T00:16:37;103476.81;;;-4.87;100.00
50380;BME280;37474;59.468;18.040;2023-04-03T00:19:04;103444.03;;;-5.15;100.00
50380;BME280;37474;59.468;18.040;2023-04-03T00:21:37;103490.31;;;-4.86;100.00
50380;BME280;37474;59.468;18.040;2023-04-03T00:24:06;103490.78;;;-4.93;100.00
50380;BME280;37474;59.468;18.040;2023-04-03T00:26:34;103492.66;;;-4.89;100.00
50380;BME280;37474;59.468;18.040;2023-04-03T00:29:05;103499.50;;;-4.88;100.00
50380;BME280;37474;59.468;18.040;2023-04-03T00:31:33;103502.72;;;-5.06;100.00
50380;BME280;37474;59.468;18.040;2023-04-03T00:34:01;103490.94;;;-4.90;100.00
50380;BME280;37474;59.468;18.040;2023-04-03T00:36:31;103498.91;;;-4.99;100.00
50380;BME280;37474;59.468;18.040;2023-04-03T00:39:03;103490.06;;;-4.91;100.00
50380;BME280;37474;59.468;18.040;2023-04-03T00:41:36;103496.53;;;-5.11;100.00
50380;BME280;37474;59.468;18.040;2023-04-03T00:44:19;103497.13;;;-5.29;100.00
50380;BME280;37474;59.468;18.040;2023-04-03T00:46:51;103494.16;;;-5.37;100.00
50380;BME280;37474;59.468;18.040;2023-04-03T00:49:19;103497.53;;;-5.66;100.00
50380;BME280;37474;59.468;18.040;2023-04-03T00:51:47;103496.59;;;-5.24;100.00
50380;BME280;37474;59.468;18.040;2023-04-03T00:54:21;103497.66;;;-5.20;100.00
50380;BME280;37474;59.468;18.040;2023-04-03T00:56:51;103497.38;;;-4.95;100.00
50380;BME280;37474;59.468;18.040;2023-04-03T00:59:24;103504.44;;;-5.34;100.00
50380;BME280;37474;59.468;18.040;2023-04-03T01:01:54;103498.63;;;-5.18;100.00
50380;BME280;37474;59.468;18.040;2023-04-03T01:04:27;103503.50;;;-5.36;100.00
50380;BME280;37474;59.468;18.040;2023-04-03T01:06:56;103499.84;;;-5.26;100.00
50380;BME280;37474;59.468;18.040;2023-04-03T01:09:31;103499.75;;;-5.43;100.00
50380;BME280;37474;59.468;18.040;2023-04-03T01:12:13;103494.88;;;-5.68;100.00
50380;BME280;37474;59.468;18.040;2023-04-03T01:14:45;103493.38;;;-5.36;100.00
50380;BME280;37474;59.468;18.040;2023-04-03T01:17:31;103504.88;;;-5.41;100.00
50380;BME280;37474;59.468;18.040;2023-04-03T01:20:39;103498.88;;;-5.14;100.00
50380;BME280;37474;59.468;18.040;2023-04-03T01:23:22;103492.00;;;-5.16;100.00
50380;BME280;37474;59.468;18.040;2023-04-03T01:25:56;103495.03;;;-5.07;100.00
50380;BME280;37474;59.468;18.040;2023-04-03T01:28:29;103500.78;;;-5.24;100.00
50380;BME280;37474;59.468;18.040;2023-04-03T01:31:08;103500.88;;;-5.08;100.00
50380;BME280;37474;59.468;18.040;2023-04-03T01:33:39;103506.53;;;-5.42;100.00
50380;BME280;37474;59.468;18.040;2023-04-03T01:36:14;103504.28;;;-5.22;100.00
50380;BME280;37474;59.468;18.040;2023-04-03T01:38:42;103450.78;;;-5.73;100.00
50380;BME280;37474;59.468;18.040;2023-04-03T01:41:10;103502.09;;;-5.31;100.00
50380;BME280;37474;59.468;18.040;2023-04-03T01:43:42;103497.31;;;-5.26;100.00
50380;BME280;37474;59.468;18.040;2023-04-03T01:46:10;103501.56;;;-5.40;100.00
50380;BME280;37474;59.468;18.040;2023-04-03T01:48:39;103504.16;;;-5.53;100.00
50380;BME280;37474;59.468;18.040;2023-04-03T01:51:11;103505.81;;;-5.54;100.00
50380;BME280;37474;59.468;18.040;2023-04-03T01:53:39;103508.16;;;-5.57;100.00
50380;BME280;37474;59.468;18.040;2023-04-03T01:56:07;103514.38;;;-5.37;100.00
50380;BME280;37474;59.468;18.040;2023-04-03T01:58:39;103504.19;;;-5.67;100.00
50380;BME280;37474;59.468;18.040;2023-04-03T02:01:09;103506.09;;;-5.77;100.00
50380;BME280;37474;59.468;18.040;2023-04-03T02:03:37;103507.22;;;-5.87;100.00
50380;BME280;37474;59.468;18.040;2023-04-03T02:06:10;103505.88;;;-5.95;100.00
50380;BME280;37474;59.468;18.040;2023-04-03T02:08:40;103503.44;;;-5.66;100.00
50380;BME280;37474;59.468;18.040;2023-04-03T02:11:10;103497.28;;;-5.99;100.00
50380;BME280;37474;59.468;18.040;2023-04-03T02:13:38;103510.41;;;-5.90;100.00
50380;BME280;37474;59.468;18.040;2023-04-03T02:16:07;103505.03;;;-5.53;100.00
50380;BME280;37474;59.468;18.040;2023-04-03T02:18:39;103485.34;;;-5.87;100.00
50380;BME280;37474;59.468;18.040;2023-04-03T02:21:09;103463.06;;;-5.94;100.00
50380;BME280;37474;59.468;18.040;2023-04-03T02:23:36;103513.13;;;-5.59;100.00
50380;BME280;37474;59.468;18.040;2023-04-03T02:26:12;103509.97;;;-5.69;100.00
50380;BME280;37474;59.468;18.040;2023-04-03T02:28:40;103520.44;;;-5.63;100.00
50380;BME280;37474;59.468;18.040;2023-04-03T02:31:10;103508.22;;;-5.55;100.00
50380;BME280;37474;59.468;18.040;2023-04-03T02:33:40;103513.00;;;-5.75;100.00
50380;BME280;37474;59.468;18.040;2023-04-03T02:36:10;103511.25;;;-5.76;100.00
50380;BME280;37474;59.468;18.040;2023-04-03T02:38:44;103516.19;;;-5.92;100.00
50380;BME280;37474;59.468;18.040;2023-04-03T02:41:14;103524.41;;;-5.67;100.00
50380;BME280;37474;59.468;18.040;2023-04-03T02:43:42;103514.28;;;-5.81;100.00
50380;BME280;37474;59.468;18.040;2023-04-03T02:46:12;103523.16;;;-5.88;100.00
50380;BME280;37474;59.468;18.040;2023-04-03T02:48:43;103507.75;;;-5.78;100.00
50380;BME280;37474;59.468;18.040;2023-04-03T02:51:12;103523.41;;;-5.55;100.00
50380;BME280;37474;59.468;18.040;2023-04-03T02:53:42;103520.50;;;-5.62;100.00
50380;BME280;37474;59.468;18.040;2023-04-03T02:56:12;103527.22;;;-6.05;100.00
50380;BME280;37474;59.468;18.040;2023-04-03T02:58:45;103527.09;;;-6.06;100.00
50380;BME280;37474;59.468;18.040;2023-04-03T03:01:15;103521.28;;;-6.19;100.00
50380;BME280;37474;59.468;18.040;2023-04-03T03:03:42;103531.19;;;-6.08;100.00
50380;BME280;37474;59.468;18.040;2023-04-03T03:06:14;103524.78;;;-6.17;100.00
50380;BME280;37474;59.468;18.040;2023-04-03T03:08:44;103527.88;;;-5.79;100.00
50380;BME280;37474;59.468;18.040;2023-04-03T03:11:16;103532.22;;;-5.92;100.00
50380;BME280;37474;59.468;18.040;2023-04-03T03:13:44;103523.91;;;-6.17;100.00
50380;BME280;37474;59.468;18.040;2023-04-03T03:16:12;103528.81;;;-5.92;100.00
50380;BME280;37474;59.468;18.040;2023-04-03T03:18:43;103530.63;;;-5.90;100.00
50380;BME280;37474;59.468;18.040;2023-04-03T03:21:13;103520.06;;;-5.69;100.00
50380;BME280;37474;59.468;18.040;2023-04-03T03:23:41;103525.81;;;-5.72;100.00
50380;BME280;37474;59.468;18.040;2023-04-03T03:26:11;103537.31;;;-6.18;100.00
50380;BME280;37474;59.468;18.040;2023-04-03T03:28:39;103526.06;;;-6.23;100.00
50380;BME280;37474;59.468;18.040;2023-04-03T03:31:10;103531.59;;;-6.29;100.00
50380;BME280;37474;59.468;18.040;2023-04-03T03:33:42;103533.38;;;-6.00;100.00
50380;BME280;37474;59.468;18.040;2023-04-03T03:36:10;103530.09;;;-5.99;100.00
50380;BME280;37474;59.468;18.040;2023-04-03T03:38:39;103529.03;;;-6.02;100.00
50380;BME280;37474;59.468;18.040;2023-04-03T03:41:11;103528.41;;;-6.40;100.00
50380;BME280;37474;59.468;18.040;2023-04-03T03:43:41;103532.94;;;-6.07;100.00
50380;BME280;37474;59.468;18.040;2023-04-03T03:46:10;103536.56;;;-6.30;100.00
50380;BME280;37474;59.468;18.040;2023-04-03T03:48:40;103539.88;;;-6.31;100.00
50380;BME280;37474;59.468;18.040;2023-04-03T03:51:10;103543.16;;;-6.59;100.00
50380;BME280;37474;59.468;18.040;2023-04-03T03:53:39;103541.50;;;-6.45;100.00
50380;BME280;37474;59.468;18.040;2023-04-03T03:56:09;103484.84;;;-6.63;100.00
50380;BME280;37474;59.468;18.040;2023-04-03T03:58:41;103530.94;;;-6.26;100.00
50380;BME280;37474;59.468;18.040;2023-04-03T04:01:09;103502.50;;;-6.50;100.00
50380;BME280;37474;59.468;18.040;2023-04-03T04:03:39;103529.09;;;-6.42;100.00
50380;BME280;37474;59.468;18.040;2023-04-03T04:06:09;103541.13;;;-6.25;100.00
50380;BME280;37474;59.468;18.040;2023-04-03T04:08:39;103546.47;;;-6.60;100.00
50380;BME280;37474;59.468;18.040;2023-04-03T04:11:09;103540.94;;;-6.41;100.00
50380;BME280;37474;59.468;18.040;2023-04-03T04:13:39;103541.22;;;-6.63;100.00
50380;BME280;37474;59.468;18.040;2023-04-03T04:16:08;103547.75;;;-6.27;100.00
50380;BME280;37474;59.468;18.040;2023-04-03T04:18:37;103539.88;;;-6.31;100.00
50380;BME280;37474;59.468;18.040;2023-04-03T04:21:07;103547.03;;;-6.51;100.00
50380;BME280;37474;59.468;18.040;2023-04-03T04:23:36;103553.16;;;-6.74;100.00
50380;BME280;37474;59.468;18.040;2023-04-03T04:26:05;103550.34;;;-6.39;100.00
50380;BME280;37474;59.468;18.040;2023-04-03T04:28:35;103544.41;;;-6.39;100.00
50380;BME280;37474;59.468;18.040;2023-04-03T04:31:03;103552.97;;;-6.50;100.00
50380;BME280;37474;59.468;18.040;2023-04-03T04:33:31;103550.03;;;-6.17;100.00
50380;BME280;37474;59.468;18.040;2023-04-03T04:36:01;103546.13;;;-5.98;100.00
50380;BME280;37474;59.468;18.040;2023-04-03T04:38:31;103545.28;;;-6.25;100.00
50380;BME280;37474;59.468;18.040;2023-04-03T04:40:58;103550.47;;;-6.37;100.00
50380;BME280;37474;59.468;18.040;2023-04-03T04:43:32;103544.50;;;-6.24;100.00
50380;BME280;37474;59.468;18.040;2023-04-03T04:46:01;103543.41;;;-6.01;100.00
50380;BME280;37474;59.468;18.040;2023-04-03T04:48:29;103551.78;;;-6.02;100.00
50380;BME280;37474;59.468;18.040;2023-04-03T04:50:58;103554.00;;;-5.94;100.00
50380;BME280;37474;59.468;18.040;2023-04-03T04:53:28;103550.03;;;-5.89;100.00
50380;BME280;37474;59.468;18.040;2023-04-03T04:55:58;103549.16;;;-5.89;100.00
50380;BME280;37474;59.468;18.040;2023-04-03T04:58:27;103547.88;;;-5.97;100.00
50380;BME280;37474;59.468;18.040;2023-04-03T05:00:58;103541.84;;;-5.71;100.00
50380;BME280;37474;59.468;18.040;2023-04-03T05:03:28;103540.84;;;-5.60;100.00
50380;BME280;37474;59.468;18.040;2023-04-03T05:05:58;103540.56;;;-5.65;100.00
50380;BME280;37474;59.468;18.040;2023-04-03T05:08:26;103526.72;;;-5.14;100.00
50380;BME280;37474;59.468;18.040;2023-04-03T05:10:56;103540.41;;;-4.95;100.00
50380;BME280;37474;59.468;18.040;2023-04-03T05:13:27;103535.34;;;-4.95;100.00
50380;BME280;37474;59.468;18.040;2023-04-03T05:15:55;103542.25;;;-4.93;100.00
50380;BME280;37474;59.468;18.040;2023-04-03T05:18:25;103544.59;;;-4.96;100.00
50380;BME280;37474;59.468;18.040;2023-04-03T05:20:57;103545.13;;;-5.01;100.00
50380;BME280;37474;59.468;18.040;2023-04-03T05:23:25;103541.19;;;-4.82;100.00
50380;BME280;37474;59.468;18.040;2023-04-03T05:25:55;103536.91;;;-4.68;100.00
50380;BME280;37474;59.468;18.040;2023-04-03T05:28:25;103538.81;;;-4.64;100.00
50380;BME280;37474;59.468;18.040;2023-04-03T05:30:54;103500.97;;;-4.77;100.00
50380;BME280;37474;59.468;18.040;2023-04-03T05:33:25;103537.56;;;-4.41;100.00
50380;BME280;37474;59.468;18.040;2023-04-03T05:35:54;103548.56;;;-4.40;100.00
50380;BME280;37474;59.468;18.040;2023-04-03T05:38:22;103535.03;;;-4.41;100.00
50380;BME280;37474;59.468;18.040;2023-04-03T05:40:52;103545.03;;;-4.28;100.00
50380;BME280;37474;59.468;18.040;2023-04-03T05:43:22;103540.31;;;-4.21;100.00
50380;BME280;37474;59.468;18.040;2023-04-03T05:45:50;103541.19;;;-4.21;100.00
50380;BME280;37474;59.468;18.040;2023-04-03T05:48:20;103535.28;;;-4.05;100.00
50380;BME280;37474;59.468;18.040;2023-04-03T05:50:50;103531.44;;;-3.82;100.00
50380;BME280;37474;59.468;18.040;2023-04-03T05:53:22;103534.59;;;-3.86;100.00
50380;BME280;37474;59.468;18.040;2023-04-03T05:55:51;103524.28;;;-3.89;100.00
50380;BME280;37474;59.468;18.040;2023-04-03T05:58:20;103532.44;;;-3.79;100.00
50380;BME280;37474;59.468;18.040;2023-04-03T06:00:50;103535.16;;;-3.59;100.00
50380;BME280;37474;59.468;18.040;2023-04-03T06:03:21;103537.84;;;-3.56;100.00
50380;BME280;37474;59.468;18.040;2023-04-03T06:05:49;103538.25;;;-3.32;100.00
50380;BME280;37474;59.468;18.040;2023-04-03T06:08:19;103538.38;;;-3.29;100.00
50380;BME280;37474;59.468;18.040;2023-04-03T06:10:48;103541.88;;;-3.11;100.00
50380;BME280;37474;59.468;18.040;2023-04-03T06:13:16;103542.22;;;-3.03;100.00
50380;BME280;37474;59.468;18.040;2023-04-03T06:15:46;103545.31;;;-2.93;100.00
50380;BME280;37474;59.468;18.040;2023-04-03T06:18:17;103556.66;;;-3.02;100.00
50380;BME280;37474;59.468;18.040;2023-04-03T06:20:46;103548.25;;;-3.01;100.00
50380;BME280;37474;59.468;18.040;2023-04-03T06:23:16;103551.78;;;-2.81;100.00
50380;BME280;37474;59.468;18.040;2023-04-03T06:25:46;103554.25;;;-2.83;100.00
50380;BME280;37474;59.468;18.040;2023-04-03T06:28:14;103552.06;;;-2.75;100.00
50380;BME280;37474;59.468;18.040;2023-04-03T06:30:42;103553.09;;;-2.54;100.00
50380;BME280;37474;59.468;18.040;2023-04-03T06:33:10;103549.81;;;-2.51;100.00
50380;BME280;37474;59.468;18.040;2023-04-03T06:35:37;103547.22;;;-2.53;100.00
50380;BME280;37474;59.468;18.040;2023-04-03T06:38:09;103547.84;;;-2.39;100.00
50380;BME280;37474;59.468;18.040;2023-04-03T06:40:39;103527.97;;;-2.30;100.00
50380;BME280;37474;59.468;18.040;2023-04-03T06:43:07;103544.38;;;-2.05;100.00
50380;BME280;37474;59.468;18.040;2023-04-03T06:45:37;103547.25;;;-1.78;99.35
50380;BME280;37474;59.468;18.040;2023-04-03T06:48:06;103545.66;;;-1.76;98.91
50380;BME280;37474;59.468;18.040;2023-04-03T06:50:34;103555.34;;;-1.68;98.05
50380;BME280;37474;59.468;18.040;2023-04-03T06:53:04;103548.13;;;-1.78;97.73
50380;BME280;37474;59.468;18.040;2023-04-03T06:55:35;103551.03;;;-1.70;99.32
50380;BME280;37474;59.468;18.040;2023-04-03T06:58:03;103554.97;;;-1.77;98.39
50380;BME280;37474;59.468;18.040;2023-04-03T07:00:33;103554.50;;;-1.68;99.00
50380;BME280;37474;59.468;18.040;2023-04-03T07:03:05;103551.97;;;-1.49;96.79
50380;BME280;37474;59.468;18.040;2023-04-03T07:05:33;103536.44;;;-1.55;97.39
50380;BME280;37474;59.468;18.040;2023-04-03T07:08:01;103549.28;;;-1.52;97.40
50380;BME280;37474;59.468;18.040;2023-04-03T07:10:33;103549.88;;;-1.57;97.34
50380;BME280;37474;59.468;18.040;2023-04-03T07:13:02;103548.00;;;-1.42;98.90
50380;BME280;37474;59.468;18.040;2023-04-03T07:15:30;103548.69;;;-1.06;96.09
50380;BME280;37474;59.468;18.040;2023-04-03T07:17:59;103555.09;;;-1.16;95.55
50380;BME280;37474;59.468;18.040;2023-04-03T07:20:27;103544.53;;;-1.04;95.56
50380;BME280;37474;59.468;18.040;2023-04-03T07:22:55;103545.63;;;-1.18;96.06
50380;BME280;37474;59.468;18.040;2023-04-03T07:25:29;103547.84;;;-1.26;95.71
50380;BME280;37474;59.468;18.040;2023-04-03T07:27:58;103542.97;;;-1.00;95.47
50380;BME280;37474;59.468;18.040;2023-04-03T07:30:27;103557.63;;;-0.95;93.54
50380;BME280;37474;59.468;18.040;2023-04-03T07:32:59;103550.34;;;-1.07;94.10
50380;BME280;37474;59.468;18.040;2023-04-03T07:35:27;103554.47;;;-1.10;93.68
50380;BME280;37474;59.468;18.040;2023-04-03T07:37:54;103552.06;;;-0.86;94.10
50380;BME280;37474;59.468;18.040;2023-04-03T07:40:26;103549.38;;;-0.68;93.23
50380;BME280;37474;59.468;18.040;2023-04-03T07:42:54;103517.22;;;-0.66;91.14
50380;BME280;37474;59.468;18.040;2023-04-03T07:45:23;103533.91;;;-0.30;88.69
50380;BME280;37474;59.468;18.040;2023-04-03T07:47:56;103547.28;;;-0.35;89.29
50380;BME280;37474;59.468;18.040;2023-04-03T07:50:24;103545.03;;;-0.50;90.69
50380;BME280;37474;59.468;18.040;2023-04-03T07:52:52;103544.16;;;-0.06;88.32
50380;BME280;37474;59.468;18.040;2023-04-03T07:55:21;103544.34;;;-0.01;85.63
50380;BME280;37474;59.468;18.040;2023-04-03T07:57:48;103537.63;;;0.01;85.33
50380;BME280;37474;59.468;18.040;2023-04-03T08:00:18;103550.47;;;-0.18;86.79
50380;BME280;37474;59.468;18.040;2023-04-03T08:02:50;103558.59;;;-0.06;86.84
50380;BME280;37474;59.468;18.040;2023-04-03T08:05:19;103553.56;;;-0.05;87.10
50380;BME280;37474;59.468;18.040;2023-04-03T08:07:48;103549.38;;;0.20;85.59
50380;BME280;37474;59.468;18.040;2023-04-03T08:10:16;103555.38;;;0.22;83.38
50380;BME280;37474;59.468;18.040;2023-04-03T08:12:45;103545.47;;;0.06;83.04
50380;BME280;37474;59.468;18.040;2023-04-03T08:15:13;103541.59;;;-0.06;83.10
50380;BME280;37474;59.468;18.040;2023-04-03T08:17:45;103545.75;;;-0.09;81.43
50380;BME280;37474;59.468;18.040;2023-04-03T08:20:14;103535.75;;;-0.03;80.28
50380;BME280;37474;59.468;18.040;2023-04-03T08:22:43;103549.59;;;0.04;80.75
50380;BME280;37474;59.468;18.040;2023-04-03T08:25:15;103551.44;;;0.30;79.39
50380;BME280;37474;59.468;18.040;2023-04-03T08:27:44;103552.88;;;0.46;77.96
50380;BME280;37474;59.468;18.040;2023-04-03T08:30:12;103545.38;;;0.76;75.62
50380;BME280;37474;59.468;18.040;2023-04-03T08:32:43;103542.59;;;0.68;76.74
50380;BME280;37474;59.468;18.040;2023-04-03T08:35:11;103541.56;;;0.63;75.72
50380;BME280;37474;59.468;18.040;2023-04-03T08:37:39;103545.03;;;0.65;75.03
50380;BME280;37474;59.468;18.040;2023-04-03T08:40:14;103520.34;;;0.66;72.59
50380;BME280;37474;59.468;18.040;2023-04-03T08:42:53;103541.44;;;0.60;74.35
50380;BME280;37474;59.468;18.040;2023-04-03T08:45:37;103513.69;;;0.69;71.80
50380;BME280;37474;59.468;18.040;2023-04-03T08:48:12;103531.34;;;0.89;73.46
50380;BME280;37474;59.468;18.040;2023-04-03T08:50:50;103529.19;;;1.26;73.35
50380;BME280;37474;59.468;18.040;2023-04-03T08:53:21;103517.47;;;1.06;71.37
50380;BME280;37474;59.468;18.040;2023-04-03T08:55:55;103520.97;;;1.10;72.47
50380;BME280;37474;59.468;18.040;2023-04-03T08:58:26;103522.63;;;1.35;71.93
50380;BME280;37474;59.468;18.040;2023-04-03T09:00:59;103518.28;;;1.32;70.34
50380;BME280;37474;59.468;18.040;2023-04-03T09:03:30;103519.63;;;1.21;68.29
50380;BME280;37474;59.468;18.040;2023-04-03T09:06:02;103523.72;;;1.16;71.49
50380;BME280;37474;59.468;18.040;2023-04-03T09:08:36;103521.69;;;1.32;69.17
50380;BME280;37474;59.468;18.040;2023-04-03T09:11:17;103520.38;;;1.17;67.22
50380;BME280;37474;59.468;18.040;2023-04-03T09:13:50;103513.25;;;1.62;67.18
50380;BME280;37474;59.468;18.040;2023-04-03T09:16:36;103473.13;;;1.32;64.49
50380;BME280;37474;59.468;18.040;2023-04-03T09:19:13;103508.91;;;1.59;66.41
50380;BME280;37474;59.468;18.040;2023-04-03T09:21:47;103517.06;;;2.05;63.83
50380;BME280;37474;59.468;18.040;2023-04-03T09:24:16;103512.88;;;2.07;64.18
50380;BME280;37474;59.468;18.040;2023-04-03T09:26:51;103515.72;;;2.18;62.29
50380;BME280;37474;59.468;18.040;2023-04-03T09:29:23;103507.81;;;1.80;61.36
50380;BME280;37474;59.468;18.040;2023-04-03T09:31:59;103502.00;;;1.85;62.92
50380;BME280;37474;59.468;18.040;2023-04-03T09:34:32;103504.25;;;2.05;60.67
50380;BME280;37474;59.468;18.040;2023-04-03T09:37:05;103504.44;;;2.43;63.19
50380;BME280;37474;59.468;18.040;2023-04-03T09:39:49;103498.00;;;2.25;58.44
50380;BME280;37474;59.468;18.040;2023-04-03T09:42:22;103496.44;;;2.30;58.65
50380;BME280;37474;59.468;18.040;2023-04-03T09:44:55;103497.25;;;2.28;58.31
50380;BME280;37474;59.468;18.040;2023-04-03T09:47:25;103453.19;;;2.08;59.95
50380;BME280;37474;59.468;18.040;2023-04-03T09:50:17;103494.75;;;2.64;59.34
50380;BME280;37474;59.468;18.040;2023-04-03T09:52:52;103487.88;;;2.61;59.80
50380;BME280;37474;59.468;18.040;2023-04-03T09:55:26;103485.34;;;2.30;58.15
50380;BME280;37474;59.468;18.040;2023-04-03T09:58:01;103486.22;;;2.63;57.79
50380;BME280;37474;59.468;18.040;2023-04-03T10:00:33;103481.44;;;2.77;56.33
50380;BME280;37474;59.468;18.040;2023-04-03T10:03:08;103480.50;;;2.74;54.44
50380;BME280;37474;59.468;18.040;2023-04-03T10:05:52;103483.63;;;2.62;55.10
50380;BME280;37474;59.468;18.040;2023-04-03T10:08:26;103463.41;;;3.09;59.44
50380;BME280;37474;59.468;18.040;2023-04-03T10:11:20;103475.53;;;3.16;56.61
50380;BME280;37474;59.468;18.040;2023-04-03T10:13:54;103472.09;;;3.15;55.94
50380;BME280;37474;59.468;18.040;2023-04-03T10:16:36;103473.66;;;3.09;55.46
50380;BME280;37474;59.468;18.040;2023-04-03T10:19:29;103464.81;;;2.96;53.39
50380;BME280;37474;59.468;18.040;2023-04-03T10:22:08;103461.25;;;3.27;54.00
50380;BME280;37474;59.468;18.040;2023-04-03T10:24:48;103469.84;;;3.28;51.83
50380;BME280;37474;59.468;18.040;2023-04-03T10:27:26;103461.00;;;3.15;51.27
50380;BME280;37474;59.468;18.040;2023-04-03T10:30:06;103454.47;;;3.28;51.08
50380;BME280;37474;59.468;18.040;2023-04-03T10:32:46;103442.06;;;3.48;52.51
50380;BME280;37474;59.468;18.040;2023-04-03T10:35:30;103444.63;;;3.10;48.59
50380;BME280;37474;59.468;18.040;2023-04-03T10:38:09;103441.94;;;3.41;48.91
50380;BME280;37474;59.468;18.040;2023-04-03T10:40:47;103444.00;;;3.20;47.60
50380;BME280;37474;59.468;18.040;2023-04-03T10:43:22;103438.59;;;3.46;47.44
50380;BME280;37474;59.468;18.040;2023-04-03T10:46:00;103437.69;;;3.43;47.77
50380;BME280;37474;59.468;18.040;2023-04-03T10:48:40;103430.34;;;3.20;46.82
50380;BME280;37474;59.468;18.040;2023-04-03T10:51:19;103427.28;;;3.36;47.49
50380;BME280;37474;59.468;18.040;2023-04-03T10:53:56;103427.63;;;3.13;47.45
50380;BME280;37474;59.468;18.040;2023-04-03T10:56:32;103429.19;;;3.44;48.72
50380;BME280;37474;59.468;18.040;2023-04-03T10:59:15;103419.47;;;3.30;46.27
50380;BME280;37474;59.468;18.040;2023-04-03T11:01:45;103417.84;;;3.77;44.79
50380;BME280;37474;59.468;18.040;2023-04-03T11:04:16;103405.00;;;3.74;45.07
50380;BME280;37474;59.468;18.040;2023-04-03T11:06:52;103404.78;;;4.09;48.49
50380;BME280;37474;59.468;18.040;2023-04-03T11:09:26;103401.13;;;3.13;42.50
50380;BME280;37474;59.468;18.040;2023-04-03T11:12:00;103398.19;;;3.34;43.14
50380;BME280;37474;59.468;18.040;2023-04-03T11:14:32;103391.94;;;3.63;43.98
50380;BME280;37474;59.468;18.040;2023-04-03T11:17:05;103389.03;;;3.45;43.42
50380;BME280;37474;59.468;18.040;2023-04-03T11:19:42;103383.81;;;3.86;43.47
50380;BME280;37474;59.468;18.040;2023-04-03T11:22:22;103386.47;;;3.89;44.42
50380;BME280;37474;59.468;18.040;2023-04-03T11:24:59;103380.69;;;4.01;42.40
50380;BME280;37474;59.468;18.040;2023-04-03T11:27:37;103375.88;;;4.19;44.70
50380;BME280;37474;59.468;18.040;2023-04-03T11:30:15;103365.13;;;4.43;47.19
50380;BME280;37474;59.468;18.040;2023-04-03T11:33:08;103367.44;;;4.26;46.00
50380;BME280;37474;59.468;18.040;2023-04-03T11:35:43;103344.56;;;3.90;42.94
50380;BME280;37474;59.468;18.040;2023-04-03T11:38:18;103377.50;;;4.14;43.99
50380;BME280;37474;59.468;18.040;2023-04-03T11:40:50;103360.75;;;4.36;46.08
50380;BME280;37474;59.468;18.040;2023-04-03T11:43:26;103356.19;;;4.18;44.21
50380;BME280;37474;59.468;18.040;2023-04-03T11:45:59;103359.69;;;4.23;41.78
50380;BME280;37474;59.468;18.040;2023-04-03T11:48:45;103358.00;;;4.27;39.66
50380;BME280;37474;59.468;18.040;2023-04-03T11:54:48;103348.59;;;4.27;40.05
50380;BME280;37474;59.468;18.040;2023-04-03T11:57:44;103347.06;;;4.38;40.38
50380;BME280;37474;59.468;18.040;2023-04-03T12:00:52;103344.72;;;4.50;38.10
50380;BME280;37474;59.468;18.040;2023-04-03T12:09:57;103336.25;;;4.58;37.46
50380;BME280;37474;59.468;18.040;2023-04-03T12:12:33;103339.38;;;4.38;37.55
50380;BME280;37474;59.468;18.040;2023-04-03T12:15:24;103328.50;;;4.55;37.47
50380;BME280;37474;59.468;18.040;2023-04-03T12:17:52;103333.19;;;4.82;37.58
50380;BME280;37474;59.468;18.040;2023-04-03T12:20:46;103325.22;;;4.63;35.95
50380;BME280;37474;59.468;18.040;2023-04-03T12:23:29;103319.38;;;4.75;37.60
50380;BME280;37474;59.468;18.040;2023-04-03T12:26:05;103321.25;;;4.85;38.93
50380;BME280;37474;59.468;18.040;2023-04-03T12:28:39;103287.41;;;4.55;39.45
50380;BME280;37474;59.468;18.040;2023-04-03T12:31:10;103309.53;;;5.07;38.31
50380;BME280;37474;59.468;18.040;2023-04-03T12:33:56;103313.44;;;4.78;37.43
50380;BME280;37474;59.468;18.040;2023-04-03T12:36:30;103309.09;;;4.72;39.20
50380;BME280;37474;59.468;18.040;2023-04-03T12:39:31;103293.09;;;4.94;37.88
50380;BME280;37474;59.468;18.040;2023-04-03T12:42:16;103304.34;;;5.04;40.88
50380;BME280;37474;59.468;18.040;2023-04-03T12:44:54;103299.00;;;4.87;39.32
50380;BME280;37474;59.468;18.040;2023-04-03T12:47:29;103304.28;;;4.98;41.39
50380;BME280;37474;59.468;18.040;2023-04-03T12:50:03;103301.53;;;4.84;38.88
50380;BME280;37474;59.468;18.040;2023-04-03T12:52:36;103291.44;;;4.99;39.80
50380;BME280;37474;59.468;18.040;2023-04-03T12:55:17;103294.59;;;4.79;37.97
50380;BME280;37474;59.468;18.040;2023-04-03T12:57:49;103257.69;;;4.73;37.60
50380;BME280;37474;59.468;18.040;2023-04-03T13:00:31;103298.47;;;5.13;39.69
50380;BME280;37474;59.468;18.040;2023-04-03T13:03:03;103290.19;;;4.68;39.10
50380;BME280;37474;59.468;18.040;2023-04-03T13:05:35;103291.56;;;4.46;37.48
50380;BME280;37474;59.468;18.040;2023-04-03T13:08:05;103286.13;;;4.87;39.39
50380;BME280;37474;59.468;18.040;2023-04-03T13:10:46;103278.81;;;5.18;39.43
50380;BME280;37474;59.468;18.040;2023-04-03T13:13:16;103278.56;;;4.96;40.92
50380;BME280;37474;59.468;18.040;2023-04-03T13:15:47;103278.56;;;4.99;39.43